createdAt,value
2022-10-16T00:00:22.922Z,16.29
2022-10-16T00:01:22.914Z,16.29
2022-10-16T00:02:22.963Z,16.33
2022-10-16T00:03:26.589Z,16.24
2022-10-16T00:04:23.874Z,16.32
2022-10-16T00:05:22.865Z,16.21
2022-10-16T00:06:22.865Z,16.40
2022-10-16T00:07:23.073Z,16.21
2022-10-16T00:08:22.829Z,16.39
2022-10-16T00:09:22.825Z,16.29
2022-10-16T00:10:22.808Z,16.24
2022-10-16T00:11:22.797Z,16.28
2022-10-16T00:12:23.141Z,16.32
2022-10-16T00:13:22.775Z,16.21
2022-10-16T00:14:22.790Z,16.39
2022-10-16T00:15:22.879Z,16.37
2022-10-16T00:16:22.742Z,16.33
2022-10-16T00:17:22.730Z,16.40
2022-10-16T00:18:22.722Z,16.39
2022-10-16T00:19:22.733Z,16.36
2022-10-16T00:20:22.703Z,16.34
2022-10-16T00:21:22.692Z,16.36
2022-10-16T00:22:22.933Z,16.37
2022-10-16T00:23:22.673Z,16.37
2022-10-16T00:24:22.682Z,16.39
2022-10-16T00:25:22.645Z,16.40
2022-10-16T00:26:22.661Z,16.34
2022-10-16T00:27:22.625Z,16.39
2022-10-16T00:28:22.667Z,16.39
2022-10-16T00:29:22.609Z,16.36
2022-10-16T00:30:22.591Z,16.36
2022-10-16T00:31:22.616Z,16.39
2022-10-16T00:32:22.912Z,16.39
2022-10-16T00:33:22.556Z,16.36
2022-10-16T00:34:22.547Z,16.40
2022-10-16T00:35:22.537Z,16.42
2022-10-16T00:36:22.544Z,16.42
2022-10-16T00:37:22.514Z,16.37
2022-10-16T00:38:22.504Z,16.46
2022-10-16T00:39:22.493Z,16.34
2022-10-16T00:40:22.485Z,16.34
2022-10-16T00:41:22.497Z,16.42
2022-10-16T00:42:22.515Z,16.46
2022-10-16T00:43:22.448Z,16.42
2022-10-16T00:44:22.442Z,16.43
2022-10-16T00:45:22.429Z,16.44
2022-10-16T00:46:22.419Z,16.40
2022-10-16T00:47:22.447Z,16.43
2022-10-16T00:48:22.395Z,16.43
2022-10-16T00:49:22.408Z,16.46
2022-10-16T00:50:22.371Z,16.40
2022-10-16T00:51:22.365Z,16.47
2022-10-16T00:52:22.658Z,16.43
2022-10-16T00:53:22.343Z,16.49
2022-10-16T00:54:22.350Z,16.46
2022-10-16T00:55:22.317Z,16.40
2022-10-16T00:56:22.311Z,16.47
2022-10-16T00:57:22.299Z,16.39
2022-10-16T00:58:22.288Z,16.43
2022-10-16T00:59:22.298Z,16.43
2022-10-16T01:00:22.263Z,16.43
2022-10-16T01:01:22.353Z,16.51
2022-10-16T01:02:22.245Z,16.51
2022-10-16T01:03:22.253Z,16.47
2022-10-16T01:04:22.242Z,16.44
2022-10-16T01:05:22.208Z,16.44
2022-10-16T01:06:22.387Z,16.44
2022-10-16T01:07:22.410Z,16.49
2022-10-16T01:08:22.174Z,16.54
2022-10-16T01:09:22.187Z,16.55
2022-10-16T01:10:22.177Z,16.51
2022-10-16T01:11:22.145Z,16.52
2022-10-16T01:12:22.130Z,16.54
2022-10-16T01:13:22.122Z,16.46
2022-10-16T01:14:22.133Z,16.47
2022-10-16T01:15:22.097Z,16.46
2022-10-16T01:16:22.092Z,16.57
2022-10-16T01:17:22.080Z,16.46
2022-10-16T01:18:22.070Z,16.57
2022-10-16T01:19:22.073Z,16.51
2022-10-16T01:20:22.065Z,16.47
2022-10-16T01:21:22.034Z,16.51
2022-10-16T01:22:22.038Z,16.46
2022-10-16T01:23:22.011Z,16.57
2022-10-16T01:24:22.004Z,16.49
2022-10-16T01:25:22.001Z,16.54
2022-10-16T01:26:21.992Z,16.44
2022-10-16T01:27:21.977Z,16.57
2022-10-16T01:28:22.028Z,16.55
2022-10-16T01:29:21.948Z,16.51
2022-10-16T01:30:21.960Z,16.52
2022-10-16T01:31:21.919Z,16.46
2022-10-16T01:32:21.916Z,16.51
2022-10-16T01:33:21.904Z,16.57
2022-10-16T01:34:21.894Z,16.47
2022-10-16T01:35:21.923Z,16.52
2022-10-16T01:36:21.870Z,16.52
2022-10-16T01:37:21.857Z,16.49
2022-10-16T01:38:21.850Z,16.52
2022-10-16T01:39:21.833Z,16.47
2022-10-16T01:40:21.848Z,16.54
2022-10-16T01:41:21.814Z,16.46
2022-10-16T01:42:21.802Z,16.47
2022-10-16T01:43:21.793Z,16.57
2022-10-16T01:44:21.785Z,16.57
2022-10-16T01:45:21.787Z,16.47
2022-10-16T01:46:21.765Z,16.47
2022-10-16T01:47:21.747Z,16.51
2022-10-16T01:48:21.745Z,16.47
2022-10-16T01:49:21.733Z,16.47
2022-10-16T01:50:21.740Z,16.57
2022-10-16T01:51:21.727Z,16.58
2022-10-16T01:52:21.695Z,16.57
2022-10-16T01:53:21.681Z,16.51
2022-10-16T01:54:21.670Z,16.55
2022-10-16T01:55:21.696Z,16.51
2022-10-16T01:56:21.656Z,16.47
2022-10-16T01:57:21.643Z,16.52
2022-10-16T01:58:21.625Z,16.52
2022-10-16T01:59:21.616Z,16.55
2022-10-16T02:00:21.604Z,16.43
2022-10-16T02:01:21.621Z,16.59
2022-10-16T02:02:21.578Z,16.47
2022-10-16T02:03:21.571Z,16.49
2022-10-16T02:04:21.558Z,16.52
2022-10-16T02:05:21.550Z,16.51
2022-10-16T02:06:21.567Z,16.52
2022-10-16T02:07:21.554Z,16.54
2022-10-16T02:08:21.516Z,16.52
2022-10-16T02:09:21.509Z,16.47
2022-10-16T02:10:21.529Z,16.52
2022-10-16T02:11:21.503Z,16.51
2022-10-16T02:12:21.473Z,16.52
2022-10-16T02:13:21.465Z,16.52
2022-10-16T02:14:21.449Z,16.46
2022-10-16T02:15:21.437Z,16.44
2022-10-16T02:16:21.453Z,16.52
2022-10-16T02:17:21.440Z,16.46
2022-10-16T02:18:21.413Z,16.58
2022-10-16T02:19:21.394Z,16.57
2022-10-16T02:20:21.385Z,16.57
2022-10-16T02:21:21.371Z,16.58
2022-10-16T02:22:21.392Z,16.55
2022-10-16T02:23:21.377Z,16.46
2022-10-16T02:24:21.340Z,16.44
2022-10-16T02:25:21.333Z,16.44
2022-10-16T02:26:21.321Z,16.52
2022-10-16T02:27:21.311Z,16.57
2022-10-16T02:28:21.391Z,16.44
2022-10-16T02:29:21.283Z,16.47
2022-10-16T02:30:21.273Z,16.57
2022-10-16T02:31:21.265Z,16.51
2022-10-16T02:32:21.250Z,16.59
2022-10-16T02:33:21.262Z,16.47
2022-10-16T02:34:21.231Z,16.59
2022-10-16T02:35:21.217Z,16.51
2022-10-16T02:36:21.211Z,16.51
2022-10-16T02:37:21.196Z,16.51
2022-10-16T02:38:21.209Z,16.47
2022-10-16T02:39:21.196Z,16.58
2022-10-16T02:40:24.332Z,16.59
2022-10-16T02:41:21.153Z,16.54
2022-10-16T02:42:21.140Z,16.49
2022-10-16T02:43:21.161Z,16.55
2022-10-16T02:44:21.117Z,16.51
2022-10-16T02:45:21.112Z,16.54
2022-10-16T02:46:21.102Z,16.61
2022-10-16T02:47:21.085Z,16.54
2022-10-16T02:48:21.097Z,16.51
2022-10-16T02:49:21.067Z,16.62
2022-10-16T02:50:21.055Z,16.61
2022-10-16T02:51:21.045Z,16.52
2022-10-16T02:52:21.028Z,16.54
2022-10-16T02:53:21.043Z,16.64
2022-10-16T02:54:21.010Z,16.55
2022-10-16T02:55:21.041Z,16.59
2022-10-16T02:56:20.990Z,16.51
2022-10-16T02:57:20.974Z,16.59
2022-10-16T02:58:20.964Z,16.65
2022-10-16T02:59:20.954Z,16.57
2022-10-16T03:00:20.969Z,16.58
2022-10-16T03:01:20.978Z,16.59
2022-10-16T03:02:20.931Z,16.62
2022-10-16T03:03:20.918Z,16.54
2022-10-16T03:04:20.921Z,16.65
2022-10-16T03:06:20.877Z,16.55
2022-10-16T03:07:20.866Z,16.64
2022-10-16T03:08:20.856Z,16.59
2022-10-16T03:09:20.845Z,16.61
2022-10-16T03:10:20.858Z,16.58
2022-10-16T03:11:20.850Z,16.59
2022-10-16T03:12:20.811Z,16.54
2022-10-16T03:13:20.800Z,16.62
2022-10-16T03:14:20.820Z,16.61
2022-10-16T03:15:20.805Z,16.62
2022-10-16T03:16:20.767Z,16.61
2022-10-16T03:17:20.761Z,16.67
2022-10-16T03:18:20.746Z,16.61
2022-10-16T03:19:20.755Z,16.55
2022-10-16T03:20:20.729Z,16.52
2022-10-16T03:21:20.737Z,16.57
2022-10-16T03:22:20.704Z,16.62
2022-10-16T03:23:20.730Z,16.57
2022-10-16T03:24:20.683Z,16.55
2022-10-16T03:25:20.691Z,16.65
2022-10-16T03:26:20.680Z,16.59
2022-10-16T03:27:20.665Z,16.62
2022-10-16T03:28:20.684Z,16.51
2022-10-16T03:29:20.624Z,16.59
2022-10-16T03:30:20.640Z,16.58
2022-10-16T03:31:20.607Z,16.47
2022-10-16T03:32:20.598Z,16.52
2022-10-16T03:33:20.582Z,16.49
2022-10-16T03:34:20.566Z,16.52
2022-10-16T03:35:20.578Z,16.47
2022-10-16T03:36:20.551Z,16.47
2022-10-16T03:37:20.550Z,16.52
2022-10-16T03:38:20.530Z,16.47
2022-10-16T03:39:20.516Z,16.54
2022-10-16T03:40:20.572Z,16.47
2022-10-16T03:41:20.492Z,16.57
2022-10-16T03:42:20.481Z,16.44
2022-10-16T03:43:20.497Z,16.55
2022-10-16T03:44:20.462Z,16.43
2022-10-16T03:45:20.470Z,16.46
2022-10-16T03:46:20.443Z,16.49
2022-10-16T03:47:20.425Z,16.43
2022-10-16T03:48:20.421Z,16.44
2022-10-16T03:49:20.413Z,16.42
2022-10-16T03:50:20.425Z,16.40
2022-10-16T03:51:20.383Z,16.37
2022-10-16T03:52:20.378Z,16.39
2022-10-16T03:53:20.360Z,16.40
2022-10-16T03:54:20.347Z,16.36
2022-10-16T03:55:20.368Z,16.43
2022-10-16T03:56:20.331Z,16.34
2022-10-16T03:57:20.320Z,16.34
2022-10-16T03:58:20.309Z,16.34
2022-10-16T03:59:20.312Z,16.34
2022-10-16T04:00:20.306Z,16.34
2022-10-16T04:01:20.365Z,16.34
2022-10-16T04:02:20.261Z,16.36
2022-10-16T04:03:20.247Z,16.21
2022-10-16T04:04:20.237Z,16.32
2022-10-16T04:05:20.228Z,16.39
2022-10-16T04:06:20.237Z,16.22
2022-10-16T04:07:20.203Z,16.33
2022-10-16T04:08:20.199Z,16.28
2022-10-16T04:09:20.184Z,16.36
2022-10-16T04:10:20.178Z,16.26
2022-10-16T04:11:20.181Z,16.36
2022-10-16T04:12:20.158Z,16.25
2022-10-16T04:14:20.129Z,16.26
2022-10-16T04:15:20.136Z,16.18
2022-10-16T04:16:20.127Z,16.26
2022-10-16T04:17:20.096Z,16.22
2022-10-16T04:18:20.080Z,16.28
2022-10-16T04:19:20.072Z,16.18
2022-10-16T04:20:20.068Z,16.22
2022-10-16T04:21:20.069Z,16.16
2022-10-16T04:22:20.085Z,16.25
2022-10-16T04:23:20.028Z,16.22
2022-10-16T04:24:20.024Z,16.17
2022-10-16T04:25:20.010Z,16.22
2022-10-16T04:26:20.021Z,16.22
2022-10-16T04:27:19.980Z,16.17
2022-10-16T04:28:20.026Z,16.24
2022-10-16T04:29:19.966Z,16.21
2022-10-16T04:30:19.954Z,16.21
2022-10-16T04:31:19.987Z,16.16
2022-10-16T04:32:19.934Z,16.22
2022-10-16T04:33:19.919Z,16.22
2022-10-16T04:34:19.912Z,16.17
2022-10-16T04:35:19.894Z,16.22
2022-10-16T04:36:19.905Z,16.21
2022-10-16T04:37:19.900Z,16.18
2022-10-16T04:38:19.864Z,16.14
2022-10-16T04:39:19.850Z,16.10
2022-10-16T04:40:19.840Z,16.16
2022-10-16T04:41:19.831Z,16.13
2022-10-16T04:42:19.844Z,16.10
2022-10-16T04:43:19.836Z,16.14
2022-10-16T04:44:19.794Z,16.09
2022-10-16T04:45:19.786Z,16.05
2022-10-16T04:46:19.775Z,16.17
2022-10-16T04:47:19.812Z,16.09
2022-10-16T04:48:19.753Z,16.17
2022-10-16T04:49:19.749Z,16.10
2022-10-16T04:50:19.728Z,16.13
2022-10-16T04:51:19.721Z,16.08
2022-10-16T04:52:19.737Z,16.02
2022-10-16T04:53:19.702Z,16.16
2022-10-16T04:54:19.686Z,16.13
2022-10-16T04:55:19.678Z,16.08
2022-10-16T04:56:19.665Z,16.10
2022-10-16T04:57:19.681Z,16.05
2022-10-16T04:58:19.646Z,16.08
2022-10-16T04:59:19.628Z,16.13
2022-10-16T05:00:19.626Z,16.03
2022-10-16T05:01:19.631Z,16.06
2022-10-16T05:02:19.637Z,16.06
2022-10-16T05:03:19.818Z,16.05
2022-10-16T05:04:19.582Z,16.00
2022-10-16T05:05:19.568Z,16.06
2022-10-16T05:06:19.583Z,15.98
2022-10-16T05:07:19.546Z,16.09
2022-10-16T05:08:19.551Z,16.05
2022-10-16T05:09:19.519Z,16.00
2022-10-16T05:10:19.515Z,16.05
2022-10-16T05:11:19.523Z,16.00
2022-10-16T05:12:19.492Z,16.13
2022-10-16T05:13:19.498Z,15.99
2022-10-16T05:14:19.470Z,15.93
2022-10-16T05:15:19.455Z,15.93
2022-10-16T05:16:19.447Z,15.93
2022-10-16T05:17:19.437Z,16.06
2022-10-16T05:18:19.444Z,15.99
2022-10-16T05:19:28.103Z,16.03
2022-10-16T05:20:20.401Z,15.96
2022-10-16T05:21:19.393Z,15.95
2022-10-16T05:22:19.379Z,15.96
2022-10-16T05:23:19.370Z,15.91
2022-10-16T05:24:19.390Z,15.99
2022-10-16T05:25:19.344Z,16.02
2022-10-16T05:26:19.341Z,15.88
2022-10-16T05:27:19.334Z,15.93
2022-10-16T05:28:19.393Z,15.84
2022-10-16T05:29:19.319Z,15.88
2022-10-16T05:30:19.302Z,15.88
2022-10-16T05:31:19.279Z,15.84
2022-10-16T05:32:19.274Z,15.85
2022-10-16T05:33:19.263Z,15.85
2022-10-16T05:34:19.272Z,15.87
2022-10-16T05:35:19.277Z,15.93
2022-10-16T05:36:19.229Z,15.91
2022-10-16T05:37:19.225Z,15.83
2022-10-16T05:38:19.204Z,15.88
2022-10-16T05:39:19.220Z,15.85
2022-10-16T05:40:19.220Z,15.84
2022-10-16T05:41:19.174Z,15.87
2022-10-16T05:42:19.165Z,15.90
2022-10-16T05:43:19.155Z,15.88
2022-10-16T05:44:19.139Z,15.88
2022-10-16T05:45:19.146Z,15.84
2022-10-16T05:46:19.143Z,15.83
2022-10-16T05:47:19.113Z,15.81
2022-10-16T05:48:19.104Z,15.90
2022-10-16T05:49:19.106Z,15.87
2022-10-16T05:50:19.104Z,15.83
2022-10-16T05:51:19.115Z,15.88
2022-10-16T05:52:19.073Z,15.88
2022-10-16T05:53:19.050Z,15.83
2022-10-16T05:54:19.052Z,15.77
2022-10-16T05:55:19.028Z,15.84
2022-10-16T05:56:19.040Z,15.77
2022-10-16T05:57:19.006Z,15.87
2022-10-16T05:58:18.996Z,15.76
2022-10-16T05:59:19.003Z,15.78
2022-10-16T06:00:18.981Z,15.78
2022-10-16T06:01:19.075Z,15.81
2022-10-16T06:02:18.947Z,15.77
2022-10-16T06:03:18.944Z,15.78
2022-10-16T06:04:18.929Z,15.84
2022-10-16T06:05:18.929Z,15.81
2022-10-16T06:06:18.938Z,15.80
2022-10-16T06:07:18.920Z,15.76
2022-10-16T06:08:18.886Z,15.87
2022-10-16T06:09:18.914Z,15.78
2022-10-16T06:10:18.860Z,15.81
2022-10-16T06:11:18.849Z,15.83
2022-10-16T06:12:18.848Z,15.81
2022-10-16T06:13:18.853Z,15.78
2022-10-16T06:14:18.818Z,15.77
2022-10-16T06:15:18.822Z,15.83
2022-10-16T06:16:18.796Z,15.81
2022-10-16T06:17:18.816Z,15.78
2022-10-16T06:18:18.779Z,15.73
2022-10-16T06:19:18.765Z,15.84
2022-10-16T06:20:18.758Z,15.83
2022-10-16T06:21:18.742Z,15.81
2022-10-16T06:22:18.758Z,15.77
2022-10-16T06:23:18.744Z,15.84
2022-10-16T06:24:18.715Z,15.87
2022-10-16T06:25:18.708Z,15.81
2022-10-16T06:26:18.695Z,15.85
2022-10-16T06:27:18.725Z,15.83
2022-10-16T06:28:18.805Z,15.85
2022-10-16T06:29:18.659Z,15.88
2022-10-16T06:30:18.651Z,15.85
2022-10-16T06:31:18.640Z,15.85
2022-10-16T06:32:18.629Z,15.91
2022-10-16T06:33:18.643Z,15.85
2022-10-16T06:34:18.607Z,15.85
2022-10-16T06:35:18.593Z,15.85
2022-10-16T06:36:18.581Z,15.85
2022-10-16T06:37:18.572Z,15.90
2022-10-16T06:38:18.581Z,15.87
2022-10-16T06:39:18.573Z,15.84
2022-10-16T06:40:18.538Z,15.88
2022-10-16T06:41:18.536Z,15.96
2022-10-16T06:42:18.542Z,15.96
2022-10-16T06:43:18.503Z,15.96
2022-10-16T06:44:18.501Z,15.98
2022-10-16T06:45:18.487Z,15.98
2022-10-16T06:46:18.479Z,15.95
2022-10-16T06:47:18.499Z,15.98
2022-10-16T06:48:18.451Z,15.96
2022-10-16T06:49:18.446Z,15.99
2022-10-16T06:50:18.426Z,15.96
2022-10-16T06:51:18.426Z,15.93
2022-10-16T06:52:18.406Z,15.95
2022-10-16T06:53:18.430Z,16.03
2022-10-16T06:54:18.387Z,15.95
2022-10-16T06:55:18.397Z,16.00
2022-10-16T06:56:18.362Z,16.00
2022-10-16T06:57:18.370Z,16.06
2022-10-16T06:58:18.363Z,16.06
2022-10-16T06:59:18.333Z,16.05
2022-10-16T07:00:18.363Z,16.06
2022-10-16T07:01:18.319Z,16.09
2022-10-16T07:02:18.302Z,16.09
2022-10-16T07:03:18.318Z,16.16
2022-10-16T07:04:18.281Z,16.18
2022-10-16T07:05:18.270Z,16.06
2022-10-16T07:06:18.254Z,16.13
2022-10-16T07:07:18.276Z,16.09
2022-10-16T07:08:18.265Z,16.17
2022-10-16T07:09:18.264Z,16.22
2022-10-16T07:10:18.210Z,16.21
2022-10-16T07:11:18.226Z,16.17
2022-10-16T07:12:18.186Z,16.17
2022-10-16T07:13:18.204Z,16.21
2022-10-16T07:14:18.165Z,16.16
2022-10-16T07:15:18.167Z,16.22
2022-10-16T07:16:18.144Z,16.22
2022-10-16T07:17:18.159Z,16.24
2022-10-16T07:18:18.155Z,16.28
2022-10-16T07:19:18.120Z,16.32
2022-10-16T07:20:18.102Z,16.29
2022-10-16T07:21:18.093Z,16.29
2022-10-16T07:22:18.101Z,16.32
2022-10-16T07:23:18.093Z,16.26
2022-10-16T07:24:18.057Z,16.37
2022-10-16T07:25:18.051Z,16.24
2022-10-16T07:26:18.064Z,16.34
2022-10-16T07:27:18.072Z,16.34
2022-10-16T07:28:18.039Z,16.36
2022-10-16T07:29:18.001Z,16.44
2022-10-16T07:30:17.997Z,16.43
2022-10-16T07:31:17.987Z,16.52
2022-10-16T07:32:17.975Z,16.43
2022-10-16T07:33:17.985Z,16.47
2022-10-16T07:34:17.950Z,16.52
2022-10-16T07:35:18.047Z,16.49
2022-10-16T07:36:17.924Z,16.54
2022-10-16T07:37:17.918Z,16.51
2022-10-16T07:38:17.926Z,16.49
2022-10-16T07:39:17.896Z,16.46
2022-10-16T07:40:17.885Z,16.51
2022-10-16T07:41:17.894Z,16.55
2022-10-16T07:42:17.863Z,16.49
2022-10-16T07:43:17.877Z,16.58
2022-10-16T07:44:17.838Z,16.57
2022-10-16T07:45:17.830Z,16.55
2022-10-16T07:46:17.889Z,16.62
2022-10-16T07:47:17.807Z,16.65
2022-10-16T07:48:17.815Z,16.64
2022-10-16T07:49:17.781Z,16.69
2022-10-16T07:50:17.772Z,16.67
2022-10-16T07:51:17.763Z,16.58
2022-10-16T07:52:17.747Z,16.73
2022-10-16T07:53:17.761Z,16.62
2022-10-16T07:54:17.730Z,16.73
2022-10-16T07:55:17.719Z,16.64
2022-10-16T07:56:17.725Z,16.65
2022-10-16T07:57:17.695Z,16.67
2022-10-16T07:58:17.685Z,16.74
2022-10-16T07:59:17.715Z,16.73
2022-10-16T08:00:17.659Z,16.74
2022-10-16T08:01:17.738Z,16.79
2022-10-16T08:02:17.636Z,16.76
2022-10-16T08:03:17.627Z,16.74
2022-10-16T08:04:17.619Z,16.79
2022-10-16T08:05:17.610Z,16.82
2022-10-16T08:06:19.655Z,16.74
2022-10-16T08:07:17.587Z,16.80
2022-10-16T08:08:17.570Z,16.87
2022-10-16T08:09:17.574Z,16.83
2022-10-16T08:10:17.553Z,16.82
2022-10-16T08:11:17.567Z,16.88
2022-10-16T08:12:17.531Z,16.83
2022-10-16T08:13:17.519Z,16.83
2022-10-16T08:14:17.508Z,16.84
2022-10-16T08:15:17.516Z,16.91
2022-10-16T08:16:17.509Z,16.92
2022-10-16T08:17:17.476Z,16.83
2022-10-16T08:18:17.472Z,16.91
2022-10-16T08:19:17.456Z,16.94
2022-10-16T08:20:17.441Z,16.98
2022-10-16T08:21:20.447Z,16.92
2022-10-16T08:22:17.428Z,16.98
2022-10-16T08:23:17.407Z,16.97
2022-10-16T08:24:17.399Z,17.01
2022-10-16T08:25:17.390Z,16.98
2022-10-16T08:26:17.400Z,17.09
2022-10-16T08:27:17.366Z,16.99
2022-10-16T08:28:17.350Z,17.09
2022-10-16T08:29:17.347Z,17.10
2022-10-16T08:30:17.329Z,17.10
2022-10-16T08:32:17.315Z,17.04
2022-10-16T08:33:17.302Z,17.09
2022-10-16T08:34:17.289Z,17.13
2022-10-16T08:35:17.275Z,17.06
2022-10-16T08:36:17.307Z,17.20
2022-10-16T08:37:17.257Z,17.06
2022-10-16T08:38:17.248Z,17.06
2022-10-16T08:39:17.237Z,17.10
2022-10-16T08:40:17.268Z,17.10
2022-10-16T08:41:17.238Z,17.13
2022-10-16T08:42:17.197Z,17.20
2022-10-16T08:43:17.197Z,17.17
2022-10-16T08:44:17.201Z,17.22
2022-10-16T08:45:17.171Z,17.14
2022-10-16T08:46:17.162Z,17.24
2022-10-16T08:47:17.191Z,17.24
2022-10-16T08:48:17.138Z,17.30
2022-10-16T08:49:17.125Z,17.25
2022-10-16T08:50:17.141Z,17.30
2022-10-16T08:51:17.115Z,17.37
2022-10-16T08:52:17.124Z,17.37
2022-10-16T08:53:17.084Z,17.32
2022-10-16T08:54:17.078Z,17.38
2022-10-16T08:55:17.066Z,17.43
2022-10-16T08:56:17.049Z,17.32
2022-10-16T08:57:21.258Z,17.35
2022-10-16T08:58:18.029Z,17.45
2022-10-16T08:59:17.029Z,17.45
2022-10-16T09:00:17.036Z,17.43
2022-10-16T09:01:17.116Z,17.43
2022-10-16T09:02:16.987Z,17.39
2022-10-16T09:03:16.997Z,17.46
2022-10-16T09:04:16.972Z,17.49
2022-10-16T09:05:16.984Z,17.53
2022-10-16T09:06:16.943Z,17.54
2022-10-16T09:07:16.967Z,17.50
2022-10-16T09:08:16.923Z,17.47
2022-10-16T09:09:16.910Z,17.65
2022-10-16T09:10:16.899Z,17.59
2022-10-16T09:11:16.907Z,17.59
2022-10-16T09:12:16.901Z,17.62
2022-10-16T09:13:16.869Z,17.72
2022-10-16T09:14:16.886Z,17.69
2022-10-16T09:15:16.846Z,17.73
2022-10-16T09:16:16.836Z,17.79
2022-10-16T09:17:16.855Z,17.83
2022-10-16T09:18:16.812Z,17.86
2022-10-16T09:19:16.834Z,17.88
2022-10-16T09:20:16.795Z,17.79
2022-10-16T09:21:16.781Z,17.88
2022-10-16T09:22:16.789Z,17.91
2022-10-16T09:23:16.763Z,17.91
2022-10-16T09:24:16.751Z,17.97
2022-10-16T09:25:16.742Z,18.01
2022-10-16T09:26:16.765Z,18.03
2022-10-16T09:27:16.737Z,18.05
2022-10-16T09:28:16.715Z,18.11
2022-10-16T09:29:16.700Z,18.13
2022-10-16T09:30:16.700Z,18.17
2022-10-16T09:31:16.680Z,18.15
2022-10-16T09:32:16.667Z,18.20
2022-10-16T09:33:16.685Z,18.21
2022-10-16T09:34:16.644Z,18.30
2022-10-16T09:35:16.651Z,18.26
2022-10-16T09:36:16.623Z,18.21
2022-10-16T09:37:16.610Z,18.31
2022-10-16T09:38:16.621Z,18.28
2022-10-16T09:39:16.586Z,18.33
2022-10-16T09:40:16.595Z,18.38
2022-10-16T09:41:16.581Z,18.28
2022-10-16T09:42:16.556Z,18.28
2022-10-16T09:43:16.571Z,18.34
2022-10-16T09:44:16.535Z,18.48
2022-10-16T09:45:16.548Z,18.49
2022-10-16T09:46:16.508Z,18.43
2022-10-16T09:47:16.501Z,18.48
2022-10-16T09:48:16.491Z,18.49
2022-10-16T09:49:16.481Z,18.34
2022-10-16T09:50:16.496Z,18.51
2022-10-16T09:51:16.491Z,18.52
2022-10-16T09:52:16.448Z,18.54
2022-10-16T09:53:16.456Z,18.56
2022-10-16T09:54:16.428Z,18.57
2022-10-16T09:55:16.442Z,18.58
2022-10-16T09:56:16.403Z,18.67
2022-10-16T09:57:16.393Z,18.64
2022-10-16T09:58:16.405Z,18.70
2022-10-16T09:59:16.370Z,18.71
2022-10-16T10:00:16.392Z,18.71
2022-10-16T10:01:16.350Z,18.82
2022-10-16T10:02:16.342Z,18.81
2022-10-16T10:03:16.351Z,18.76
2022-10-16T10:04:16.342Z,18.83
2022-10-16T10:05:16.306Z,18.83
2022-10-16T10:06:16.298Z,18.89
2022-10-16T10:07:16.303Z,18.83
2022-10-16T10:08:16.277Z,18.94
2022-10-16T10:09:16.286Z,18.89
2022-10-16T10:10:16.312Z,18.94
2022-10-16T10:11:16.288Z,18.91
2022-10-16T10:12:16.234Z,19.05
2022-10-16T10:13:16.218Z,18.98
2022-10-16T10:14:16.239Z,19.01
2022-10-16T10:15:16.200Z,18.97
2022-10-16T10:16:16.188Z,19.12
2022-10-16T10:17:16.177Z,19.13
2022-10-16T10:18:16.167Z,19.07
2022-10-16T10:19:16.179Z,19.09
2022-10-16T10:20:16.290Z,19.19
2022-10-16T10:21:16.129Z,19.19
2022-10-16T10:22:16.132Z,19.27
2022-10-16T10:23:16.132Z,19.31
2022-10-16T10:24:16.125Z,19.31
2022-10-16T10:25:16.100Z,19.31
2022-10-16T10:26:16.085Z,19.30
2022-10-16T10:27:16.074Z,19.39
2022-10-16T10:28:16.057Z,19.34
2022-10-16T10:29:16.065Z,19.42
2022-10-16T10:31:16.048Z,19.41
2022-10-16T10:32:16.023Z,19.41
2022-10-16T10:33:16.003Z,19.49
2022-10-16T10:34:15.993Z,19.42
2022-10-16T10:35:16.005Z,19.44
2022-10-16T10:36:15.968Z,19.45
2022-10-16T10:37:15.984Z,19.52
2022-10-16T10:38:15.953Z,19.57
2022-10-16T10:39:16.023Z,19.56
2022-10-16T10:40:15.952Z,19.57
2022-10-16T10:41:15.916Z,19.62
2022-10-16T10:42:15.905Z,19.68
2022-10-16T10:43:15.897Z,19.62
2022-10-16T10:44:15.894Z,19.63
2022-10-16T10:45:15.893Z,19.63
2022-10-16T10:46:15.860Z,19.67
2022-10-16T10:47:15.880Z,19.63
2022-10-16T10:48:15.898Z,19.63
2022-10-16T10:49:15.834Z,19.75
2022-10-16T10:50:15.824Z,19.77
2022-10-16T10:51:15.808Z,19.77
2022-10-16T10:52:15.826Z,19.74
2022-10-16T10:53:15.790Z,19.74
2022-10-16T10:54:15.785Z,19.89
2022-10-16T10:55:15.791Z,19.84
2022-10-16T10:56:15.763Z,19.90
2022-10-16T10:57:15.772Z,19.90
2022-10-16T10:58:15.735Z,19.86
2022-10-16T10:59:15.725Z,20.00
2022-10-16T11:00:15.713Z,20.02
2022-10-16T11:01:15.698Z,19.96
2022-10-16T11:02:15.829Z,20.08
2022-10-16T11:03:15.680Z,20.18
2022-10-16T11:04:15.671Z,20.18
2022-10-16T11:05:15.652Z,20.22
2022-10-16T11:06:15.650Z,20.26
2022-10-16T11:07:15.653Z,20.36
2022-10-16T11:08:15.624Z,20.26
2022-10-16T11:09:15.616Z,20.36
2022-10-16T11:10:15.607Z,20.34
2022-10-16T11:11:15.613Z,20.37
2022-10-16T11:12:15.604Z,20.37
2022-10-16T11:13:15.573Z,20.39
2022-10-16T11:14:15.562Z,20.37
2022-10-16T11:15:15.554Z,20.53
2022-10-16T11:16:17.664Z,20.44
2022-10-16T11:17:16.553Z,20.50
2022-10-16T11:18:15.522Z,20.53
2022-10-16T11:19:15.505Z,20.63
2022-10-16T11:20:15.501Z,20.53
2022-10-16T11:21:15.487Z,20.56
2022-10-16T11:22:15.506Z,20.58
2022-10-16T11:23:15.474Z,20.63
2022-10-16T11:24:15.458Z,20.70
2022-10-16T11:25:15.445Z,20.71
2022-10-16T11:26:15.445Z,20.74
2022-10-16T11:27:15.442Z,20.74
2022-10-16T11:28:15.435Z,20.83
2022-10-16T11:29:15.446Z,20.77
2022-10-16T11:30:15.421Z,20.79
2022-10-16T11:31:15.385Z,20.88
2022-10-16T11:32:15.372Z,20.83
2022-10-16T11:33:15.384Z,20.97
2022-10-16T11:34:15.352Z,20.93
2022-10-16T11:35:15.351Z,20.92
2022-10-16T11:36:15.331Z,20.89
2022-10-16T11:37:15.319Z,20.95
2022-10-16T11:38:15.329Z,21.00
2022-10-16T11:39:15.293Z,21.00
2022-10-16T11:40:15.286Z,21.05
2022-10-16T11:41:15.279Z,20.97
2022-10-16T11:42:15.264Z,21.04
2022-10-16T11:43:15.292Z,21.05
2022-10-16T11:44:15.241Z,21.10
2022-10-16T11:45:15.238Z,21.07
2022-10-16T11:46:15.215Z,21.18
2022-10-16T11:47:39.746Z,21.05
2022-10-16T11:48:16.194Z,21.14
2022-10-16T11:49:15.189Z,21.11
2022-10-16T11:50:15.180Z,21.22
2022-10-16T11:51:15.163Z,21.29
2022-10-16T11:52:15.186Z,21.29
2022-10-16T11:53:15.143Z,21.28
2022-10-16T11:54:15.128Z,21.37
2022-10-16T11:55:15.125Z,21.38
2022-10-16T11:56:15.104Z,21.29
2022-10-16T11:57:15.124Z,21.28
2022-10-16T11:58:15.088Z,21.38
2022-10-16T11:59:15.095Z,21.43
2022-10-16T12:00:15.069Z,21.47
2022-10-16T12:01:15.143Z,21.50
2022-10-16T12:02:15.070Z,21.50
2022-10-16T12:03:15.140Z,21.50
2022-10-16T12:04:15.026Z,21.60
2022-10-16T12:05:15.009Z,21.62
2022-10-16T12:06:15.012Z,21.66
2022-10-16T12:07:14.988Z,21.62
2022-10-16T12:08:15.002Z,21.66
2022-10-16T12:09:14.966Z,21.67
2022-10-16T12:10:14.959Z,21.74
2022-10-16T12:11:14.972Z,21.67
2022-10-16T12:12:14.928Z,21.88
2022-10-16T12:13:14.953Z,21.84
2022-10-16T12:14:14.914Z,21.90
2022-10-16T12:15:21.936Z,21.84
2022-10-16T12:16:15.909Z,21.91
2022-10-16T12:17:14.884Z,21.96
2022-10-16T12:18:14.897Z,21.93
2022-10-16T12:19:14.870Z,21.98
2022-10-16T12:20:14.865Z,22.06
2022-10-16T12:21:14.839Z,22.13
2022-10-16T12:22:14.825Z,22.09
2022-10-16T12:23:14.842Z,22.09
2022-10-16T12:24:14.809Z,22.12
2022-10-16T12:25:14.800Z,22.12
2022-10-16T12:26:14.789Z,22.15
2022-10-16T12:27:14.776Z,22.18
2022-10-16T12:28:14.778Z,22.28
2022-10-16T12:29:14.759Z,22.31
2022-10-16T12:30:14.743Z,22.28
2022-10-16T12:31:14.771Z,22.33
2022-10-16T12:32:19.324Z,22.33
2022-10-16T12:33:15.730Z,22.40
2022-10-16T12:34:14.700Z,22.48
2022-10-16T12:35:14.692Z,22.46
2022-10-16T12:36:14.677Z,22.48
2022-10-16T12:37:14.675Z,22.55
2022-10-16T12:39:14.649Z,22.51
2022-10-16T12:40:14.641Z,22.64
2022-10-16T12:41:14.622Z,22.55
2022-10-16T12:42:14.614Z,22.56
2022-10-16T12:43:14.625Z,22.59
2022-10-16T12:44:14.588Z,22.64
2022-10-16T12:45:14.593Z,22.73
2022-10-16T12:46:14.576Z,22.70
2022-10-16T12:47:14.614Z,22.77
2022-10-16T12:48:14.573Z,22.67
2022-10-16T12:49:14.559Z,22.77
2022-10-16T12:50:17.414Z,22.80
2022-10-16T12:51:14.519Z,22.80
2022-10-16T12:52:14.525Z,22.86
2022-10-16T12:53:14.519Z,22.86
2022-10-16T12:54:14.482Z,22.81
2022-10-16T12:55:14.478Z,22.88
2022-10-16T12:56:14.464Z,22.86
2022-10-16T12:57:14.452Z,22.98